Time;durP1;ratioP1;P1;durP2;ratioP2;P2;SDS_P1;SDS_P2;PMS_P1;PMS_P2;Temp;Humidity;BMP_temperature;BMP_pressure;BME280_temperature;BME280_humidity;BME280_pressure;Samples;Min_cycle;Max_cycle;Signal;HPM_P1;HPM_P2
2023/06/07 00:02:07;;;;;;;;;10.33;9.33;;;;;23.61;66.98;101389.03;5006112;28;57683;-76
2023/06/07 00:04:32;;;;;;;;;9.00;8.33;;;;;23.52;67.07;101383.00;5008876;28;46208;-77
2023/06/07 00:07:00;;;;;;;;;15.67;11.00;;;;;23.49;67.34;101388.53;5010229;28;45878;-76
2023/06/07 00:09:27;;;;;;;;;9.33;9.33;;;;;23.44;67.67;101384.22;5009102;28;46824;-77
2023/06/07 00:11:53;;;;;;;;;13.00;10.33;;;;;23.40;67.61;101386.13;5000978;28;45599;-79
2023/06/07 00:14:19;;;;;;;;;13.00;9.00;;;;;23.35;67.65;101387.22;5008071;28;45945;-77
2023/06/07 00:16:44;;;;;;;;;10.33;8.67;;;;;23.31;67.86;101391.81;5009622;28;45574;-78
2023/06/07 00:19:11;;;;;;;;;9.00;8.00;;;;;23.31;68.09;101388.25;5006640;28;46783;-74
2023/06/07 00:21:38;;;;;;;;;16.33;9.33;;;;;23.27;68.43;101388.31;5007023;28;45450;-77
2023/06/07 00:24:04;;;;;;;;;10.00;7.00;;;;;23.24;68.56;101387.56;5011318;28;45543;-79
2023/06/07 00:26:30;;;;;;;;;11.33;10.00;;;;;23.22;68.62;101387.63;5010930;28;45501;-76
2023/06/07 00:28:56;;;;;;;;;10.00;9.00;;;;;23.18;68.74;101385.94;5011584;28;46536;-78
2023/06/07 00:31:21;;;;;;;;;13.00;10.67;;;;;23.17;68.84;101380.59;5008277;28;57743;-77
2023/06/07 00:33:46;;;;;;;;;14.00;13.00;;;;;23.13;69.11;101378.94;5013989;28;65389;-78
2023/06/07 00:36:12;;;;;;;;;10.67;9.67;;;;;23.10;69.38;101382.59;5015224;28;45611;-77
2023/06/07 00:38:37;;;;;;;;;10.00;10.00;;;;;23.08;69.74;101381.78;5014096;28;46938;-77
2023/06/07 00:41:02;;;;;;;;;13.33;11.33;;;;;23.03;69.62;101386.44;5008098;28;65840;-77
2023/06/07 00:43:28;;;;;;;;;15.33;10.00;;;;;22.97;69.43;101384.81;5014287;28;45529;-78
2023/06/07 00:45:53;;;;;;;;;10.00;10.00;;;;;22.95;69.51;101388.47;5012812;28;45448;-77
2023/06/07 00:48:19;;;;;;;;;12.33;10.00;;;;;22.92;69.58;101388.59;5015169;28;63803;-78
2023/06/07 00:50:45;;;;;;;;;13.00;11.33;;;;;22.87;70.16;101386.00;5019826;28;45455;-78
2023/06/07 00:53:10;;;;;;;;;9.00;8.00;;;;;22.82;70.05;101385.25;5012564;28;45511;-76
2023/06/07 00:55:36;;;;;;;;;12.00;10.33;;;;;22.78;70.60;101386.28;5017150;28;61622;-77
2023/06/07 00:58:01;;;;;;;;;9.67;9.67;;;;;22.73;70.18;101377.47;5013737;28;47584;-78
2023/06/07 01:00:28;;;;;;;;;12.33;10.67;;;;;22.71;70.29;101384.72;5013361;28;68306;-77
2023/06/07 01:02:55;;;;;;;;;13.00;8.00;;;;;22.68;70.34;101380.28;5010233;28;45371;-77
2023/06/07 01:05:21;;;;;;;;;11.33;9.00;;;;;22.64;70.34;101372.38;5012857;28;45565;-77
2023/06/07 01:07:47;;;;;;;;;15.67;11.00;;;;;22.63;70.73;101378.66;5014481;28;47275;-78
2023/06/07 01:10:14;;;;;;;;;10.33;9.33;;;;;22.57;70.55;101377.03;5010162;28;45458;-77
2023/06/07 01:12:43;;;;;;;;;10.33;10.00;;;;;22.53;71.12;101374.50;5010377;28;46063;-78
2023/06/07 01:15:09;;;;;;;;;11.00;9.67;;;;;22.47;71.32;101378.25;5006541;28;46747;-74
2023/06/07 01:17:37;;;;;;;;;14.00;12.00;;;;;22.42;71.56;101370.31;5016625;28;47585;-77
2023/06/07 01:20:04;;;;;;;;;11.00;9.00;;;;;22.39;71.52;101378.47;5015084;28;45542;-78
2023/06/07 01:22:32;;;;;;;;;10.33;9.00;;;;;22.37;71.78;101380.34;5011109;28;45545;-77
2023/06/07 01:25:00;;;;;;;;;11.67;8.33;;;;;22.33;71.76;101370.59;5012416;28;45662;-77
2023/06/07 01:27:27;;;;;;;;;14.33;10.00;;;;;22.29;71.77;101366.22;5013206;28;47018;-77
2023/06/07 01:29:54;;;;;;;;;14.67;11.33;;;;;22.29;72.22;101373.41;5010904;28;45470;-76
2023/06/07 01:32:19;;;;;;;;;12.00;10.00;;;;;22.27;72.00;101370.78;5010292;28;45526;-78
2023/06/07 01:34:46;;;;;;;;;15.00;10.33;;;;;22.25;72.31;101374.44;5011619;28;62582;-78
2023/06/07 01:37:11;;;;;;;;;8.67;8.67;;;;;22.23;72.52;101366.41;5012119;28;70132;-78
2023/06/07 01:39:39;;;;;;;;;10.67;10.33;;;;;22.19;72.34;101364.72;5011447;28;68958;-77
2023/06/07 01:42:06;;;;;;;;;16.00;11.00;;;;;22.18;72.80;101368.34;5009829;28;45891;-77
2023/06/07 01:44:31;;;;;;;;;13.33;11.33;;;;;22.15;72.72;101373.78;5005064;28;45444;-77
2023/06/07 01:46:57;;;;;;;;;14.00;10.67;;;;;22.12;73.00;101373.91;5013843;28;71954;-77
2023/06/07 01:49:22;;;;;;;;;14.33;11.33;;;;;22.06;74.50;101376.72;5009264;28;67255;-76
2023/06/07 01:51:47;;;;;;;;;13.67;9.00;;;;;21.95;73.44;101363.59;5006028;28;45408;-77
2023/06/07 01:54:16;;;;;;;;;12.33;10.33;;;;;21.91;73.85;101368.16;5012533;28;54932;-77
2023/06/07 01:56:56;;;;;;;;;13.67;10.67;;;;;21.89;73.80;101369.09;5009808;28;46496;-78
2023/06/07 01:59:36;;;;;;;;;14.33;11.33;;;;;21.82;74.38;101363.03;5012488;28;45993;-78
2023/06/07 02:02:09;;;;;;;;;12.67;12.33;;;;;21.79;74.05;101360.44;5009539;28;45549;-77
2023/06/07 02:04:38;;;;;;;;;13.67;10.33;;;;;21.74;74.77;101351.59;5013473;28;45570;-78
2023/06/07 02:07:06;;;;;;;;;15.67;11.00;;;;;21.73;74.92;101357.88;5009236;28;47862;-77
2023/06/07 02:09:35;;;;;;;;;15.67;12.67;;;;;21.68;74.84;101349.97;5010963;28;45737;-78
2023/06/07 02:12:02;;;;;;;;;14.67;13.33;;;;;21.66;74.65;101353.59;5008572;28;45538;-77
2023/06/07 02:14:28;;;;;;;;;13.67;13.33;;;;;21.63;75.28;101356.41;5010500;28;45703;-77
2023/06/07 02:16:53;;;;;;;;;14.33;11.00;;;;;21.63;75.14;101356.41;5010944;28;47580;-77
2023/06/07 02:19:19;;;;;;;;;13.33;13.00;;;;;21.61;74.91;101355.53;5010222;28;60495;-76
2023/06/07 02:21:44;;;;;;;;;16.33;12.00;;;;;21.58;75.55;101355.63;5010739;28;45585;-76
2023/06/07 02:24:10;;;;;;;;;18.33;12.67;;;;;21.55;75.11;101351.19;5006871;28;63322;-78
2023/06/07 02:26:36;;;;;;;;;17.67;12.33;;;;;21.53;75.73;101345.00;5012644;28;46915;-76
2023/06/07 02:29:03;;;;;;;;;14.67;11.67;;;;;21.51;75.77;101349.50;5011318;28;45819;-77
2023/06/07 02:31:28;;;;;;;;;9.67;9.67;;;;;21.50;75.79;101346.88;5010389;28;45407;-76
2023/06/07 02:33:53;;;;;;;;;12.67;11.33;;;;;21.47;76.29;101352.34;5010444;28;45580;-77
2023/06/07 02:36:22;;;;;;;;;12.33;12.33;;;;;21.43;76.24;101347.03;5013374;28;46340;-76
2023/06/07 02:38:48;;;;;;;;;14.67;11.33;;;;;21.39;76.15;101339.97;5014159;28;45390;-77
2023/06/07 02:41:13;;;;;;;;;13.33;12.33;;;;;21.38;76.39;101340.91;5011147;28;45607;-76
2023/06/07 02:43:39;;;;;;;;;14.33;12.33;;;;;21.34;76.92;101349.06;5013106;28;46510;-77
2023/06/07 02:46:05;;;;;;;;;16.67;13.33;;;;;21.31;77.25;101346.47;5009290;28;46327;-78
2023/06/07 02:48:30;;;;;;;;;18.33;14.00;;;;;21.28;77.47;101341.13;5016611;28;45518;-79
2023/06/07 02:50:55;;;;;;;;;21.67;14.67;;;;;21.23;77.17;101352.00;5009422;28;67921;-77
2023/06/07 02:53:20;;;;;;;;;16.33;14.33;;;;;21.18;77.43;101341.34;5012305;28;63436;-76
2023/06/07 02:55:46;;;;;;;;;14.00;10.33;;;;;21.15;77.86;101341.44;5009207;28;60294;-76
2023/06/07 02:58:13;;;;;;;;;12.00;12.00;;;;;21.12;78.03;101340.63;5010797;28;45489;-79
2023/06/07 03:00:39;;;;;;;;;16.33;13.00;;;;;21.09;77.73;101338.91;5012063;28;45510;-79
2023/06/07 03:03:05;;;;;;;;;14.33;12.00;;;;;21.05;78.43;101341.72;5009619;28;45909;-76
2023/06/07 03:05:31;;;;;;;;;16.67;13.00;;;;;21.02;78.79;101348.03;5012638;28;47203;-76
2023/06/07 03:07:59;;;;;;;;;10.33;10.00;;;;;20.98;78.81;101340.06;5012485;28;45498;-77
2023/06/07 03:10:25;;;;;;;;;17.33;14.00;;;;;20.96;79.32;101341.91;5012217;28;45889;-78
2023/06/07 03:12:50;;;;;;;;;17.67;16.33;;;;;20.93;78.78;101337.50;5010862;28;45446;-76
2023/06/07 03:15:16;;;;;;;;;14.00;12.00;;;;;20.91;79.01;101342.91;5012423;28;47041;-76
2023/06/07 03:17:42;;;;;;;;;17.00;15.33;;;;;20.87;79.12;101346.56;5010833;28;67327;-76
2023/06/07 03:20:08;;;;;;;;;14.33;13.00;;;;;20.85;79.71;101342.19;5007989;28;45589;-78
2023/06/07 03:22:36;;;;;;;;;19.00;13.00;;;;;20.83;79.50;101350.28;5007617;28;45445;-78
2023/06/07 03:25:03;;;;;;;;;19.33;16.00;;;;;20.82;79.95;101339.53;5011122;28;47468;-76
2023/06/07 03:27:29;;;;;;;;;20.67;16.67;;;;;20.79;79.87;101339.63;5001123;28;45417;-77
2023/06/07 03:29:54;;;;;;;;;19.33;15.67;;;;;20.75;80.11;101338.81;5011555;28;45518;-78
2023/06/07 03:32:20;;;;;;;;;25.33;15.67;;;;;20.75;81.02;101337.94;5003850;28;45522;-77
2023/06/07 03:34:45;;;;;;;;;20.00;16.33;;;;;20.70;80.26;101331.78;5012045;28;63649;-77
2023/06/07 03:37:10;;;;;;;;;18.67;15.33;;;;;20.67;81.54;101338.13;5011461;28;45558;-77
2023/06/07 03:39:36;;;;;;;;;19.67;17.33;;;;;20.65;81.18;101339.94;5010938;28;65025;-76
2023/06/07 03:42:01;;;;;;;;;18.00;15.67;;;;;20.63;81.09;101345.34;5008221;28;45613;-78
2023/06/07 03:44:27;;;;;;;;;18.33;15.67;;;;;20.60;81.44;101336.47;5011607;28;49370;-76
2023/06/07 03:46:52;;;;;;;;;24.33;17.33;;;;;20.57;81.76;101340.13;5012265;28;45450;-78
2023/06/07 03:49:18;;;;;;;;;18.33;17.00;;;;;20.52;81.67;101335.78;5015912;28;45453;-76
2023/06/07 03:51:43;;;;;;;;;16.67;16.67;;;;;20.50;82.36;101343.84;5013106;28;63406;-76
2023/06/07 03:54:09;;;;;;;;;17.00;14.33;;;;;20.44;82.28;101335.91;5011553;28;46362;-77
2023/06/07 03:56:35;;;;;;;;;16.67;16.00;;;;;20.43;82.46;101334.13;5005180;28;45416;-77
2023/06/07 03:59:01;;;;;;;;;19.33;13.67;;;;;20.42;82.83;101341.31;5011160;28;56076;-77
2023/06/07 04:01:27;;;;;;;;;23.33;18.33;;;;;20.40;82.64;101339.59;5009862;28;45899;-78
2023/06/07 04:03:52;;;;;;;;;22.00;16.67;;;;;20.38;82.72;101346.75;5006530;28;46390;-76
2023/06/07 04:06:20;;;;;;;;;20.67;16.33;;;;;20.33;83.22;101346.84;5010861;28;69646;-76
2023/06/07 04:08:46;;;;;;;;;20.33;16.00;;;;;20.32;83.87;101344.22;5011832;28;45664;-76
2023/06/07 04:11:11;;;;;;;;;17.33;17.00;;;;;20.29;83.32;101346.94;5009437;28;45493;-76
2023/06/07 04:13:36;;;;;;;;;21.00;16.67;;;;;20.27;83.97;101351.47;5005846;28;69093;-78
2023/06/07 04:16:02;;;;;;;;;22.67;18.00;;;;;20.24;84.47;101352.44;5011380;28;45792;-77
2023/06/07 04:18:27;;;;;;;;;22.33;17.00;;;;;20.23;84.39;101355.13;5013838;28;45454;-77
2023/06/07 04:20:53;;;;;;;;;24.67;18.33;;;;;20.21;84.44;101354.28;5003682;28;45480;-77
2023/06/07 04:23:18;;;;;;;;;23.67;17.33;;;;;20.22;84.66;101361.41;5009325;28;66927;-77
2023/06/07 04:25:43;;;;;;;;;23.00;18.75;;;;;20.19;84.76;101354.31;5007757;28;52473;-76
2023/06/07 04:28:10;;;;;;;;;20.00;17.67;;;;;20.18;84.96;101354.34;5010053;28;45496;-77
2023/06/07 04:30:36;;;;;;;;;24.75;20.50;;;;;20.20;85.44;101363.25;5011679;28;45693;-77
2023/06/07 04:33:08;;;;;;;;;20.25;18.25;;;;;20.18;85.57;101359.69;5008320;28;47263;-77
2023/06/07 04:35:34;;;;;;;;;21.67;18.67;;;;;20.15;86.01;101361.53;5011607;28;45518;-79
2023/06/07 04:38:01;;;;;;;;;21.33;18.00;;;;;20.17;86.08;101363.28;5010863;28;45816;-77
2023/06/07 04:40:30;;;;;;;;;23.67;16.33;;;;;20.16;86.59;101373.16;5011014;28;45880;-77
2023/06/07 04:43:05;;;;;;;;;22.67;20.00;;;;;20.11;86.59;101365.19;5007795;28;47361;-76
2023/06/07 04:45:36;;;;;;;;;24.50;22.25;;;;;20.11;87.16;101364.31;5004377;28;45816;-76
2023/06/07 04:48:01;;;;;;;;;20.67;16.00;;;;;20.11;86.60;101367.00;5012694;28;45492;-77
2023/06/07 04:50:30;;;;;;;;;23.25;21.75;;;;;20.11;87.33;101375.91;5021929;28;45922;-78
2023/06/07 04:53:00;;;;;;;;;22.75;20.75;;;;;20.10;86.80;101373.28;5006517;28;47561;-77
2023/06/07 04:55:28;;;;;;;;;29.25;19.75;;;;;20.09;87.57;101372.38;5008272;28;45786;-78
2023/06/07 04:57:54;;;;;;;;;20.25;19.25;;;;;20.08;87.53;101377.75;5011041;28;45485;-78
2023/06/07 05:00:20;;;;;;;;;23.00;21.00;;;;;20.05;87.89;101367.13;5007982;28;45517;-76
2023/06/07 05:02:45;;;;;;;;;22.00;21.00;;;;;20.03;88.33;101371.63;5008334;28;46594;-76
2023/06/07 05:05:13;;;;;;;;;29.67;24.00;;;;;20.02;87.95;101372.53;5008921;28;66614;-76
2023/06/07 05:07:44;;;;;;;;;24.75;23.25;;;;;20.01;88.57;101374.31;5008847;28;45529;-76
2023/06/07 05:10:09;;;;;;;;;22.75;21.75;;;;;19.99;88.81;101372.59;5008303;28;45599;-77
2023/06/07 05:12:35;;;;;;;;;29.00;22.25;;;;;19.99;89.53;101384.19;5011302;28;46572;-76
2023/06/07 05:15:00;;;;;;;;;27.00;21.75;;;;;19.97;88.94;101374.41;5014239;28;45438;-76
2023/06/07 05:17:28;;;;;;;;;22.75;22.25;;;;;19.95;89.25;101379.81;5012448;28;45594;-76
2023/06/07 05:19:54;;;;;;;;;24.75;23.25;;;;;19.95;89.25;101378.94;5014320;28;45562;-77
2023/06/07 05:22:20;;;;;;;;;23.25;21.75;;;;;19.94;89.93;101375.38;5007753;28;46412;-77
2023/06/07 05:24:46;;;;;;;;;30.75;22.75;;;;;19.96;89.59;101380.69;5012076;28;45999;-76
2023/06/07 05:27:11;;;;;;;;;24.25;20.50;;;;;19.96;90.14;101378.00;5011152;28;65304;-78
2023/06/07 05:29:36;;;;;;;;;23.75;21.00;;;;;19.96;90.44;101378.00;5008914;28;53636;-77
2023/06/07 05:32:02;;;;;;;;;29.50;23.50;;;;;19.98;90.81;101378.88;5007963;28;70800;-78
2023/06/07 05:34:27;;;;;;;;;23.50;20.00;;;;;19.98;91.22;101371.72;5007755;28;55207;-77
2023/06/07 05:36:54;;;;;;;;;27.75;23.50;;;;;19.99;90.18;101375.28;5012471;28;62836;-77
2023/06/07 05:39:19;;;;;;;;;25.00;24.00;;;;;19.98;91.47;101370.84;5013816;28;45578;-77
2023/06/07 05:41:45;;;;;;;;;21.25;19.75;;;;;19.97;91.63;101371.72;5006955;28;46400;-77
2023/06/07 05:44:10;;;;;;;;;31.50;22.25;;;;;19.95;91.62;101368.19;5008029;28;67707;-77
2023/06/07 05:46:35;;;;;;;;;33.75;25.25;;;;;19.96;91.19;101364.59;5016532;28;63768;-76
2023/06/07 05:49:01;;;;;;;;;29.25;25.00;;;;;19.98;91.94;101374.41;5014460;28;46101;-77
2023/06/07 05:51:27;;;;;;;;;37.25;29.25;;;;;19.97;92.85;101369.03;5013894;28;61262;-76
2023/06/07 05:53:52;;;;;;;;;26.25;22.75;;;;;19.93;91.96;101378.97;5013259;28;45585;-76
2023/06/07 05:56:19;;;;;;;;;26.75;18.75;;;;;19.89;92.16;101375.44;5012683;28;47012;-77
2023/06/07 05:58:45;;;;;;;;;27.25;22.25;;;;;19.88;92.20;101371.00;5014310;28;45535;-76
2023/06/07 06:01:13;;;;;;;;;23.75;20.50;;;;;19.85;92.66;101373.72;5007557;28;46403;-75
2023/06/07 06:03:38;;;;;;;;;28.25;25.25;;;;;19.84;93.08;101379.13;5006215;28;45914;-75
2023/06/07 06:06:17;;;;;;;;;34.75;28.00;;;;;19.85;93.09;101383.56;5006981;28;45873;-75
2023/06/07 06:08:43;;;;;;;;;30.00;24.25;;;;;19.86;92.77;101377.28;5009005;28;45443;-75
2023/06/07 06:11:13;;;;;;;;;28.50;21.50;;;;;19.92;93.49;101379.88;5006284;28;46633;-76
2023/06/07 06:13:38;;;;;;;;;27.25;24.25;;;;;19.93;94.93;101387.00;5009436;28;45456;-73
2023/06/07 06:16:04;;;;;;;;;34.00;26.00;;;;;19.91;95.04;101377.22;5015969;28;45977;-76
2023/06/07 06:18:29;;;;;;;;;33.25;24.25;;;;;19.93;96.57;101386.13;5013755;28;45582;-75
2023/06/07 06:20:55;;;;;;;;;30.00;25.50;;;;;19.93;95.57;101380.75;5008250;28;45996;-78
2023/06/07 06:23:20;;;;;;;;;30.25;23.75;;;;;19.94;95.91;101388.75;5009102;28;56730;-76
2023/06/07 06:25:46;;;;;;;;;31.50;23.25;;;;;19.99;96.15;101386.88;5010460;28;45784;-75
2023/06/07 06:28:12;;;;;;;;;26.75;24.50;;;;;20.05;95.49;101391.25;5012659;28;45639;-76
2023/06/07 06:30:37;;;;;;;;;25.00;22.25;;;;;20.10;96.69;101392.03;5013030;28;46622;-77
2023/06/07 06:33:03;;;;;;;;;34.75;22.75;;;;;20.05;96.99;101402.84;5009410;28;54929;-76
2023/06/07 06:35:29;;;;;;;;;30.25;27.00;;;;;20.01;96.85;101403.81;5008951;28;46100;-74
2023/06/07 06:37:54;;;;;;;;;28.00;25.00;;;;;19.98;97.44;101405.69;5010937;28;45522;-74
2023/06/07 06:40:20;;;;;;;;;25.25;22.50;;;;;19.96;97.07;101396.78;5007363;28;45629;-73
2023/06/07 06:42:46;;;;;;;;;23.00;18.33;;;;;19.94;98.27;101393.25;5013300;28;45474;-74
2023/06/07 06:45:11;;;;;;;;;25.00;23.50;;;;;19.96;98.14;101400.31;5009660;28;45675;-75
2023/06/07 06:47:41;;;;;;;;;22.00;19.00;;;;;19.97;98.40;101401.22;5013122;28;45399;-74
2023/06/07 06:50:10;;;;;;;;;26.75;19.25;;;;;20.00;98.64;101401.16;5010674;28;47351;-75
2023/06/07 06:52:35;;;;;;;;;29.75;25.25;;;;;20.01;98.97;101400.25;5009428;28;45443;-74
2023/06/07 06:55:00;;;;;;;;;25.25;22.75;;;;;20.01;99.64;101397.56;5008969;28;64824;-74
2023/06/07 06:57:26;;;;;;;;;23.75;21.50;;;;;20.05;99.30;101401.97;5012210;28;66715;-74
2023/06/07 06:59:51;;;;;;;;;24.00;20.00;;;;;20.08;100.00;101399.22;5005827;28;63736;-74
2023/06/07 07:02:17;;;;;;;;;26.50;21.25;;;;;20.11;99.42;101394.69;5008985;28;68612;-73
2023/06/07 07:04:42;;;;;;;;;26.25;20.50;;;;;20.14;100.00;101391.06;5009135;28;45405;-71
2023/06/07 07:07:07;;;;;;;;;28.00;22.75;;;;;20.19;100.00;101383.81;5000172;28;65047;-74
2023/06/07 07:09:33;;;;;;;;;27.50;25.75;;;;;20.26;100.00;101395.31;5009006;28;69901;-73
2023/06/07 07:11:59;;;;;;;;;24.75;21.00;;;;;20.33;99.95;101399.63;5009253;28;45536;-74
2023/06/07 07:14:24;;;;;;;;;24.00;20.25;;;;;20.42;100.00;101388.72;5009114;28;45538;-75
2023/06/07 07:16:50;;;;;;;;;27.50;21.75;;;;;20.48;100.00;101396.66;4998572;28;61570;-75
2023/06/07 07:19:15;;;;;;;;;28.67;21.33;;;;;20.54;99.91;101388.47;4999441;28;70783;-76
2023/06/07 07:21:43;;;;;;;;;29.00;23.00;;;;;20.58;99.83;101395.56;5009253;28;45771;-76
2023/06/07 07:24:08;;;;;;;;;23.67;22.00;;;;;20.68;99.43;101398.94;5011831;28;45459;-76
2023/06/07 07:26:33;;;;;;;;;24.67;21.00;;;;;20.79;98.18;101404.94;5011123;28;45489;-76
2023/06/07 07:28:59;;;;;;;;;20.67;16.67;;;;;20.89;98.32;101398.44;5007382;28;45763;-78
2023/06/07 07:31:24;;;;;;;;;21.50;19.00;;;;;20.98;97.20;101393.78;5003221;28;45532;-75
2023/06/07 07:33:50;;;;;;;;;19.67;18.33;;;;;21.10;96.37;101396.19;5001515;28;64595;-76
2023/06/07 07:36:17;;;;;;;;;25.00;20.33;;;;;21.21;96.48;101391.44;5007874;28;60106;-75
2023/06/07 07:38:45;;;;;;;;;18.67;16.67;;;;;21.31;95.71;101381.41;5006084;28;46717;-75
2023/06/07 07:41:11;;;;;;;;;18.00;15.67;;;;;21.43;95.08;101392.72;5005979;28;47209;-75
2023/06/07 07:43:36;;;;;;;;;20.75;18.50;;;;;21.54;94.37;101394.25;5010105;28;45584;-75
2023/06/07 07:46:01;;;;;;;;;17.67;14.67;;;;;21.62;92.91;101402.97;5007730;28;63359;-75
2023/06/07 07:48:27;;;;;;;;;23.33;18.33;;;;;21.68;92.82;101394.78;5014060;28;53461;-75
2023/06/07 07:50:52;;;;;;;;;17.33;14.67;;;;;21.76;92.70;101398.13;5008326;28;46546;-75
2023/06/07 07:53:18;;;;;;;;;20.67;17.33;;;;;21.81;92.19;101396.22;5010633;28;57908;-76
2023/06/07 07:55:43;;;;;;;;;21.33;17.67;;;;;21.92;91.64;101399.50;5008335;28;45520;-76
2023/06/07 07:58:08;;;;;;;;;19.33;16.67;;;;;22.00;91.25;101393.00;5009798;28;61523;-75
2023/06/07 08:00:34;;;;;;;;;19.33;18.67;;;;;22.10;91.08;101390.06;5007904;28;45763;-75
2023/06/07 08:02:59;;;;;;;;;16.67;14.33;;;;;22.18;90.45;101385.38;5008888;28;45450;-75
2023/06/07 08:05:25;;;;;;;;;28.67;18.67;;;;;22.25;89.99;101388.75;5007114;28;46002;-76
2023/06/07 08:07:50;;;;;;;;;23.33;17.00;;;;;22.34;90.20;101388.50;5007496;28;45455;-75
2023/06/07 08:10:16;;;;;;;;;18.67;15.33;;;;;22.45;90.11;101390.88;5008138;28;69442;-76
2023/06/07 08:12:41;;;;;;;;;20.67;15.33;;;;;22.53;89.47;101387.94;5009111;28;46234;-75
2023/06/07 08:17:41;;;;;;;;;21.67;17.33;;;;;22.73;88.77;101378.34;4952357;26;45500;-72
2023/06/07 08:20:10;;;;;;;;;16.67;15.67;;;;;22.82;88.69;101381.69;5011062;28;45483;-73
2023/06/07 08:22:38;;;;;;;;;23.67;18.00;;;;;22.90;88.11;101387.75;5011584;28;46095;-72
2023/06/07 08:25:05;;;;;;;;;18.00;14.67;;;;;22.99;88.04;101385.66;5012343;28;45721;-73
2023/06/07 08:27:30;;;;;;;;;18.67;17.33;;;;;23.08;87.69;101384.47;5010040;28;47264;-75
2023/06/07 08:29:56;;;;;;;;;18.00;15.67;;;;;23.13;87.14;101384.34;5008887;28;70588;-74
2023/06/07 08:32:21;;;;;;;;;18.00;15.33;;;;;23.20;86.90;101392.16;5006831;28;46204;-73
2023/06/07 08:34:47;;;;;;;;;15.33;15.33;;;;;23.27;86.70;101382.06;5011883;28;45467;-73
2023/06/07 08:37:12;;;;;;;;;22.33;19.33;;;;;23.30;86.25;101379.28;5011032;28;47580;-73
2023/06/07 08:39:37;;;;;;;;;18.67;14.33;;;;;23.34;86.08;101390.84;5009941;28;63562;-74
2023/06/07 08:42:03;;;;;;;;;20.00;17.00;;;;;23.35;86.05;101382.69;5010003;28;45499;-74
2023/06/07 08:44:28;;;;;;;;;15.67;15.33;;;;;23.40;85.91;101394.22;5012501;28;45499;-73
2023/06/07 08:46:55;;;;;;;;;15.00;13.33;;;;;23.46;85.65;101385.03;5022431;28;46676;-73
2023/06/07 08:49:22;;;;;;;;;17.67;15.00;;;;;23.53;85.70;101383.88;5002961;28;45417;-72
2023/06/07 08:51:47;;;;;;;;;19.67;15.00;;;;;23.59;85.28;101372.88;4998205;28;45611;-74
2023/06/07 08:54:16;;;;;;;;;19.00;17.33;;;;;23.69;84.97;101384.28;4995777;28;61264;-73
2023/06/07 08:56:41;;;;;;;;;15.67;14.67;;;;;23.73;84.90;101384.13;4991998;28;47423;-73
2023/06/07 08:59:07;;;;;;;;;16.67;16.00;;;;;23.78;84.45;101379.44;5012491;28;71625;-73
2023/06/07 09:01:37;;;;;;;;;19.33;15.00;;;;;23.81;84.02;101382.97;4995886;28;66577;-73
2023/06/07 09:04:02;;;;;;;;;19.33;15.67;;;;;23.81;83.80;101375.78;5010153;28;45459;-73
2023/06/07 09:06:28;;;;;;;;;16.33;13.67;;;;;23.82;83.64;101369.44;5013952;28;46763;-73
2023/06/07 09:08:53;;;;;;;;;16.00;13.67;;;;;23.80;83.54;101365.91;5012928;28;45362;-73
2023/06/07 09:11:19;;;;;;;;;16.33;15.00;;;;;23.77;83.77;101369.59;4997361;28;45825;-74
2023/06/07 09:13:44;;;;;;;;;16.67;14.00;;;;;23.73;83.78;101359.84;5017068;28;45543;-72
2023/06/07 09:16:13;;;;;;;;;18.67;15.00;;;;;23.73;83.79;101362.53;5014489;28;51974;-74
2023/06/07 09:18:53;;;;;;;;;15.67;14.33;;;;;23.75;82.95;101370.56;5024411;28;45555;-73
2023/06/07 09:21:30;;;;;;;;;15.33;14.33;;;;;23.74;82.93;101363.41;5014106;28;46214;-74
2023/06/07 09:23:58;;;;;;;;;13.33;13.33;;;;;23.78;82.94;101365.09;5008839;28;45602;-73
2023/06/07 09:26:35;;;;;;;;;16.67;13.00;;;;;23.82;83.15;101368.56;4993114;28;46661;-72
2023/06/07 09:29:05;;;;;;;;;11.33;11.33;;;;;23.85;82.88;101363.91;5008903;28;45417;-73
2023/06/07 09:31:32;;;;;;;;;14.00;12.67;;;;;23.90;82.65;101361.94;5012939;28;45575;-73
2023/06/07 09:33:57;;;;;;;;;16.00;15.00;;;;;23.94;82.68;101365.41;5013685;28;45557;-73
2023/06/07 09:36:23;;;;;;;;;13.00;13.00;;;;;23.95;82.51;101362.66;5013733;28;46226;-74
2023/06/07 09:38:48;;;;;;;;;10.67;10.67;;;;;24.01;81.94;101361.56;5014074;28;45430;-72
2023/06/07 09:41:14;;;;;;;;;13.67;13.67;;;;;24.04;81.85;101362.34;5014443;28;65899;-73
2023/06/07 09:43:47;;;;;;;;;16.33;14.33;;;;;24.09;80.81;101353.19;5017985;28;45658;-73
2023/06/07 09:46:13;;;;;;;;;17.67;14.33;;;;;24.11;79.87;101352.19;5012418;28;46725;-74
2023/06/07 09:48:52;;;;;;;;;14.67;13.33;;;;;24.16;79.95;101352.91;5016490;28;45467;-73
2023/06/07 09:51:19;;;;;;;;;16.33;13.33;;;;;24.21;80.33;101350.91;5013676;28;45898;-74
2023/06/07 09:54:11;;;;;;;;;14.00;13.00;;;;;24.27;80.23;101347.97;5013723;28;45655;-73
2023/06/07 09:56:40;;;;;;;;;13.33;13.00;;;;;24.32;80.34;101347.81;5006830;28;47518;-73
2023/06/07 09:59:10;;;;;;;;;15.33;13.33;;;;;24.37;79.49;101339.56;5013962;28;45546;-76
2023/06/07 10:01:45;;;;;;;;;17.67;13.00;;;;;24.43;80.25;101344.72;4995247;28;46433;-74
2023/06/07 10:04:11;;;;;;;;;16.00;15.67;;;;;24.46;79.31;101340.09;5012519;28;45431;-74
2023/06/07 10:06:48;;;;;;;;;12.67;11.00;;;;;24.53;78.80;101335.34;5012954;28;46542;-74
2023/06/07 10:09:14;;;;;;;;;15.00;13.00;;;;;24.58;78.84;101335.16;5013874;28;45428;-74
2023/06/07 10:11:44;;;;;;;;;14.67;13.67;;;;;24.64;77.98;101340.31;4993863;28;45996;-73
2023/06/07 10:14:11;;;;;;;;;14.33;13.33;;;;;24.67;78.22;101337.50;5014013;28;45712;-74
2023/06/07 10:16:42;;;;;;;;;15.00;14.00;;;;;24.73;77.20;101334.56;5008442;28;46752;-74
2023/06/07 10:19:17;;;;;;;;;10.33;10.33;;;;;24.77;77.61;101334.38;4993230;28;45455;-74
2023/06/07 10:21:47;;;;;;;;;16.00;13.33;;;;;24.82;77.18;101329.69;5009992;28;45636;-74
2023/06/07 10:24:22;;;;;;;;;17.00;14.00;;;;;24.88;77.22;101320.44;4991132;28;45741;-73
2023/06/07 10:26:55;;;;;;;;;15.33;13.00;;;;;24.95;76.51;101326.47;5007682;28;45835;-74
2023/06/07 10:29:29;;;;;;;;;16.00;15.00;;;;;25.03;76.22;101324.31;5007766;28;45540;-75
2023/06/07 10:32:05;;;;;;;;;14.33;12.33;;;;;25.08;75.77;101323.22;4996488;28;45585;-74
2023/06/07 10:34:31;;;;;;;;;14.00;14.00;;;;;25.16;76.09;101327.44;5012114;28;45700;-74
2023/06/07 10:36:58;;;;;;;;;14.33;14.33;;;;;25.18;75.68;101322.84;5008326;28;70290;-76
2023/06/07 10:39:23;;;;;;;;;14.00;13.00;;;;;25.24;75.64;101314.47;4990002;28;45622;-74
2023/06/07 10:41:49;;;;;;;;;15.33;14.33;;;;;25.28;75.11;101319.69;5012651;28;45500;-74
2023/06/07 10:44:15;;;;;;;;;12.00;12.00;;;;;25.33;74.54;101306.84;5011016;28;45561;-75
2023/06/07 10:46:40;;;;;;;;;15.00;14.00;;;;;25.39;74.83;101307.53;4989906;28;46730;-74
2023/06/07 10:49:35;;;;;;;;;16.00;14.33;;;;;25.45;75.27;101309.97;5007391;28;45826;-74
2023/06/07 10:52:01;;;;;;;;;15.67;14.33;;;;;25.51;74.27;101304.28;5010393;28;45568;-75
2023/06/07 10:54:35;;;;;;;;;12.67;11.67;;;;;25.56;74.21;101295.03;5011361;28;45348;-74
2023/06/07 10:57:02;;;;;;;;;14.67;13.33;;;;;25.65;74.38;101303.69;5003089;28;45825;-75
2023/06/07 10:59:28;;;;;;;;;15.00;14.00;;;;;25.72;73.85;101306.03;5010264;28;45534;-75
2023/06/07 11:01:54;;;;;;;;;15.00;15.00;;;;;25.76;73.07;101290.59;4992747;28;45543;-75
2023/06/07 11:04:36;;;;;;;;;13.00;13.00;;;;;25.81;73.57;101292.16;4990974;28;45540;-74
2023/06/07 11:07:32;;;;;;;;;18.33;14.00;;;;;25.87;72.44;101299.09;5001158;28;46719;-74
2023/06/07 11:10:13;;;;;;;;;13.00;11.67;;;;;25.93;72.47;101292.53;5011312;28;45537;-75
2023/06/07 11:12:43;;;;;;;;;14.33;13.00;;;;;25.97;72.80;101284.22;5008834;28;45449;-75